Time;durP1;ratioP1;P1;durP2;ratioP2;P2;SDS_P1;SDS_P2;PMS_P1;PMS_P2;Temp;Humidity;BMP_temperature;BMP_pressure;BME280_temperature;BME280_humidity;BME280_pressure;Samples;Min_cycle;Max_cycle;Signal;HPM_P1;HPM_P2
2022/04/11 00:00:59;;;;;;;6.50;3.40;;;;;;;5.32;69.50;101939.81;5053030;28;20025;-74
2022/04/11 00:03:24;;;;;;;8.18;3.60;;;;;;;5.18;70.48;101930.66;5052842;28;20104;-72
2022/04/11 00:05:49;;;;;;;9.18;3.90;;;;;;;5.09;70.63;101925.44;5035048;28;20025;-72
2022/04/11 00:08:14;;;;;;;6.30;3.42;;;;;;;4.95;71.65;101929.94;5056244;28;20064;-73
2022/04/11 00:10:40;;;;;;;8.40;3.63;;;;;;;4.98;70.42;101924.56;5055322;28;20025;-72
2022/04/11 00:13:07;;;;;;;6.63;3.88;;;;;;;5.02;70.29;101922.56;5055808;28;20032;-73
2022/04/11 00:15:34;;;;;;;7.97;4.18;;;;;;;5.08;70.30;101923.84;5037337;28;20375;-73
2022/04/11 00:18:02;;;;;;;9.18;3.40;;;;;;;5.01;70.74;101915.03;5055408;28;20020;-72
2022/04/11 00:20:28;;;;;;;8.57;3.50;;;;;;;5.03;70.63;101915.69;5056367;28;20033;-72
2022/04/11 00:22:53;;;;;;;11.35;3.75;;;;;;;4.98;70.52;101914.31;5056365;28;20341;-73
2022/04/11 00:25:18;;;;;;;9.50;3.90;;;;;;;5.16;70.14;101916.34;5056119;28;20381;-72
2022/04/11 00:27:44;;;;;;;6.97;3.70;;;;;;;4.81;71.74;101906.38;5054615;28;20440;-71
2022/04/11 00:30:10;;;;;;;8.10;3.75;;;;;;;4.97;71.35;101909.31;5037473;28;20044;-72
2022/04/11 00:32:40;;;;;;;10.18;3.90;;;;;;;4.89;71.61;101904.81;5055531;28;20025;-73
2022/04/11 00:35:06;;;;;;;8.00;4.13;;;;;;;4.78;71.82;101902.28;5055980;28;20052;-74
2022/04/11 00:37:31;;;;;;;7.40;3.88;;;;;;;4.78;71.55;101906.59;5055863;28;20021;-74
2022/04/11 00:39:57;;;;;;;9.38;4.38;;;;;;;4.75;72.86;101907.66;5054799;28;20025;-73
2022/04/11 00:42:27;;;;;;;9.93;4.00;;;;;;;4.95;71.88;101904.31;5056030;28;20036;-73
2022/04/11 00:44:52;;;;;;;8.55;3.95;;;;;;;4.95;70.92;101903.50;5056479;28;20028;-73
2022/04/11 00:47:17;;;;;;;11.25;4.93;;;;;;;4.97;70.60;101893.94;5054606;28;20025;-73
2022/04/11 00:49:43;;;;;;;11.07;4.35;;;;;;;5.05;70.77;101898.47;5055773;28;20104;-74
2022/04/11 00:52:09;;;;;;;8.68;4.35;;;;;;;4.92;70.47;101899.44;5055269;28;20120;-73
2022/04/11 00:54:35;;;;;;;11.95;4.30;;;;;;;4.83;71.08;101895.03;5055466;28;20372;-73
2022/04/11 00:57:01;;;;;;;12.70;4.78;;;;;;;4.67;71.60;101892.88;5054362;28;20035;-73
2022/04/11 00:59:27;;;;;;;11.13;4.70;;;;;;;4.58;73.10;101896.19;5054476;28;20021;-74
2022/04/11 01:01:53;;;;;;;9.70;4.85;;;;;;;4.60;72.95;101889.16;5055434;28;20021;-74
2022/04/11 01:04:26;;;;;;;11.70;4.45;;;;;;;4.56;73.05;101877.56;5055356;28;20472;-74
2022/04/11 01:06:54;;;;;;;8.82;4.82;;;;;;;4.53;73.64;101882.91;5037756;28;20090;-74
2022/04/11 01:09:19;;;;;;;10.75;4.20;;;;;;;4.45;75.04;101875.81;5055118;28;20456;-73
2022/04/11 01:11:45;;;;;;;10.25;4.60;;;;;;;4.49;74.50;101882.34;5055248;28;20052;-73
2022/04/11 01:14:10;;;;;;;9.43;4.93;;;;;;;4.43;74.67;101890.50;5054151;28;20119;-73
2022/04/11 01:16:35;;;;;;;9.15;4.93;;;;;;;4.43;74.83;101885.38;5055513;28;20043;-73
2022/04/11 01:19:00;;;;;;;13.10;4.68;;;;;;;4.47;74.80;101883.41;5053070;28;20033;-74
2022/04/11 01:21:27;;;;;;;9.15;4.57;;;;;;;4.52;75.25;101891.53;5055133;28;20520;-74
2022/04/11 01:23:53;;;;;;;8.25;4.63;;;;;;;4.56;75.12;101892.09;5037039;28;20074;-74
2022/04/11 01:26:21;;;;;;;10.23;5.00;;;;;;;4.53;75.10;101885.47;5055071;28;20441;-74
2022/04/11 01:28:48;;;;;;;10.32;4.93;;;;;;;4.47;74.48;101886.75;5053859;28;20029;-74
2022/04/11 01:31:14;;;;;;;11.77;5.20;;;;;;;4.43;74.67;101879.44;5053768;28;20016;-73
2022/04/11 01:33:40;;;;;;;11.25;5.50;;;;;;;4.48;74.82;101883.25;5053753;28;20476;-73
2022/04/11 01:36:05;;;;;;;10.05;5.30;;;;;;;4.49;74.57;101879.78;5054119;28;20024;-72
2022/04/11 01:38:30;;;;;;;11.27;5.43;;;;;;;4.52;74.75;101886.41;5036093;28;20024;-72
2022/04/11 01:40:57;;;;;;;13.07;5.28;;;;;;;4.47;75.31;101879.09;5054568;28;20031;-73
2022/04/11 01:43:23;;;;;;;12.27;5.10;;;;;;;4.41;75.31;101873.63;5054922;28;20025;-73
2022/04/11 01:45:49;;;;;;;11.23;5.45;;;;;;;4.47;75.55;101878.28;5036546;28;20021;-73
2022/04/11 01:48:15;;;;;;;10.60;5.15;;;;;;;4.47;74.52;101878.28;5053529;28;20028;-73
2022/04/11 01:50:40;;;;;;;10.65;5.20;;;;;;;4.50;74.50;101880.59;5054569;28;20063;-73
2022/04/11 01:53:17;;;;;;;11.05;5.20;;;;;;;4.40;74.67;101872.00;5054573;28;20020;-73
2022/04/11 01:55:42;;;;;;;11.88;5.65;;;;;;;4.39;74.83;101871.19;5054508;28;20025;-73
2022/04/11 01:58:08;;;;;;;11.80;5.15;;;;;;;4.44;74.95;101870.84;5052703;28;20075;-73
2022/04/11 02:00:35;;;;;;;9.45;5.60;;;;;;;4.41;74.74;101871.88;5054116;28;20036;-74
2022/04/11 02:03:01;;;;;;;10.38;6.13;;;;;;;4.27;75.06;101869.59;5054357;28;20100;-73
2022/04/11 02:05:27;;;;;;;16.95;5.80;;;;;;;4.27;75.67;101859.34;5052789;28;20040;-73
2022/04/11 02:07:53;;;;;;;8.57;5.45;;;;;;;4.20;74.84;101860.75;5035940;28;20493;-73
2022/04/11 02:10:19;;;;;;;9.20;5.55;;;;;;;4.12;75.62;101858.00;5054499;28;20522;-74
2022/04/11 02:12:45;;;;;;;11.90;5.60;;;;;;;4.10;75.38;101870.06;5053108;28;20017;-75
2022/04/11 02:15:11;;;;;;;12.50;5.70;;;;;;;4.09;75.44;101865.91;5054573;28;20017;-75
2022/04/11 02:17:36;;;;;;;13.40;6.00;;;;;;;4.13;75.57;101864.72;5053154;28;20359;-76
2022/04/11 02:20:02;;;;;;;9.60;5.40;;;;;;;4.04;76.04;101861.94;5053186;28;20029;-76
2022/04/11 02:22:29;;;;;;;13.25;5.93;;;;;;;4.11;76.80;101856.34;5054253;28;20087;-75
2022/04/11 02:24:54;;;;;;;9.05;5.85;;;;;;;4.00;76.88;101863.13;5054348;28;20021;-75
2022/04/11 02:27:20;;;;;;;10.93;5.22;;;;;;;3.93;76.93;101858.56;5054512;28;20044;-75
2022/04/11 02:29:45;;;;;;;11.15;5.43;;;;;;;3.91;76.77;101861.22;5054142;28;20024;-74
2022/04/11 02:32:10;;;;;;;16.15;5.25;;;;;;;3.90;77.35;101863.91;5052883;28;20029;-74
2022/04/11 02:34:35;;;;;;;10.10;4.97;;;;;;;3.80;77.08;101866.38;5052803;28;20029;-74
2022/04/11 02:37:01;;;;;;;13.95;5.30;;;;;;;3.77;77.96;101859.75;5053924;28;20021;-74
2022/04/11 02:39:26;;;;;;;11.98;5.60;;;;;;;3.77;76.90;101872.53;5036503;28;20029;-73
2022/04/11 02:41:52;;;;;;;10.10;5.60;;;;;;;3.71;77.42;101859.38;5052831;28;20032;-73
2022/04/11 02:44:18;;;;;;;9.57;5.30;;;;;;;3.76;77.47;101857.28;5053986;28;20035;-74
2022/04/11 02:46:44;;;;;;;15.80;6.00;;;;;;;3.79;77.89;101857.06;5053264;28;20029;-74
2022/04/11 02:49:09;;;;;;;11.82;5.50;;;;;;;3.84;77.58;101857.53;5052410;28;20020;-74
2022/04/11 02:51:34;;;;;;;11.35;5.38;;;;;;;3.73;77.01;101854.97;5053394;28;20123;-74
2022/04/11 02:54:02;;;;;;;9.02;5.20;;;;;;;3.75;77.75;101855.66;5052438;28;20035;-74
2022/04/11 02:56:27;;;;;;;10.25;5.15;;;;;;;3.89;76.80;101855.44;5052203;28;20021;-74
2022/04/11 02:58:52;;;;;;;12.40;5.22;;;;;;;3.88;76.10;101858.09;5053600;28;20077;-74
2022/04/11 03:01:18;;;;;;;11.98;5.65;;;;;;;3.89;75.54;101859.75;5052203;28;20464;-73
2022/04/11 03:03:43;;;;;;;7.57;4.85;;;;;;;3.86;76.27;101853.13;5053433;28;20033;-74
2022/04/11 03:06:08;;;;;;;12.18;4.75;;;;;;;3.79;76.52;101854.50;5053049;28;20029;-74
2022/04/11 03:08:34;;;;;;;11.18;4.80;;;;;;;3.66;76.92;101864.03;5051886;28;20472;-73
2022/04/11 03:10:59;;;;;;;8.25;5.05;;;;;;;3.66;77.09;101862.28;5053293;28;20033;-73
2022/04/11 03:13:24;;;;;;;9.75;5.18;;;;;;;3.64;77.94;101859.03;5053011;28;20017;-74
2022/04/11 03:15:50;;;;;;;9.85;5.30;;;;;;;3.76;76.77;101858.09;5053202;28;20495;-74
2022/04/11 03:18:15;;;;;;;13.55;5.32;;;;;;;3.71;77.91;101854.25;5035578;28;20094;-74
2022/04/11 03:20:40;;;;;;;9.25;5.18;;;;;;;3.80;77.43;101851.84;5053239;28;20102;-74
2022/04/11 03:23:06;;;;;;;9.80;5.40;;;;;;;3.58;76.89;101836.50;5053017;28;20083;-72
2022/04/11 03:25:31;;;;;;;8.98;5.10;;;;;;;3.59;76.84;101845.78;5053116;28;20028;-73
2022/04/11 03:27:57;;;;;;;11.80;4.63;;;;;;;3.64;76.97;101845.44;5053227;28;20067;-73
2022/04/11 03:30:22;;;;;;;10.20;4.97;;;;;;;3.71;76.55;101846.59;5053124;28;20031;-74
2022/04/11 03:32:47;;;;;;;10.10;4.78;;;;;;;3.69;75.92;101843.34;5052913;28;20457;-73
2022/04/11 03:35:12;;;;;;;10.95;5.07;;;;;;;3.70;76.95;101839.88;5053065;28;20017;-73
2022/04/11 03:37:38;;;;;;;10.07;4.85;;;;;;;3.61;76.60;101838.81;5053068;28;20029;-72
2022/04/11 03:40:04;;;;;;;10.75;4.78;;;;;;;3.65;77.77;101834.28;5034935;28;20036;-74
2022/04/11 03:42:29;;;;;;;8.20;4.47;;;;;;;3.61;76.94;101839.63;5054251;28;20025;-73
2022/04/11 03:44:54;;;;;;;10.40;4.72;;;;;;;3.69;76.92;101840.81;5055753;28;20032;-74
2022/04/11 03:47:19;;;;;;;9.43;4.60;;;;;;;3.82;77.03;101837.16;5056966;28;20495;-74
2022/04/11 03:49:45;;;;;;;8.35;4.10;;;;;;;3.87;75.91;101848.81;5056992;28;20375;-73
2022/04/11 03:52:10;;;;;;;10.30;4.50;;;;;;;3.83;75.85;101843.13;5057075;28;20075;-73
2022/04/11 03:54:35;;;;;;;14.07;5.15;;;;;;;3.80;75.96;101840.81;5056849;28;20035;-73
2022/04/11 03:57:01;;;;;;;9.63;4.35;;;;;;;3.66;76.14;101839.28;5056675;28;20110;-72
2022/04/11 03:59:26;;;;;;;10.30;5.05;;;;;;;3.75;76.61;101841.16;5056604;28;20025;-72
2022/04/11 04:01:51;;;;;;;11.27;4.57;;;;;;;3.67;76.31;101842.66;5056649;28;20036;-73
2022/04/11 04:04:16;;;;;;;12.45;4.63;;;;;;;3.69;76.49;101831.38;5056592;28;20457;-73
2022/04/11 04:06:42;;;;;;;13.23;5.07;;;;;;;3.72;76.01;101833.72;5056674;28;20029;-72
2022/04/11 04:09:07;;;;;;;13.45;4.55;;;;;;;3.77;76.32;101836.72;5038618;28;20049;-73
2022/04/11 04:11:33;;;;;;;8.85;4.40;;;;;;;3.91;75.74;101842.53;5056720;28;20082;-72
2022/04/11 04:13:58;;;;;;;9.30;4.45;;;;;;;3.83;75.63;101833.72;5055142;28;20078;-73
2022/04/11 04:16:23;;;;;;;11.80;4.75;;;;;;;3.98;75.65;101828.34;5056448;28;20416;-73
2022/04/11 04:18:49;;;;;;;12.70;4.80;;;;;;;3.88;75.21;101832.53;5056612;28;20036;-73
2022/04/11 04:21:18;;;;;;;8.25;4.68;;;;;;;3.77;75.47;101829.06;5055111;28;20021;-73
2022/04/11 04:23:44;;;;;;;8.30;4.38;;;;;;;3.76;75.50;101826.59;5056497;28;20032;-73
2022/04/11 04:26:09;;;;;;;8.73;4.38;;;;;;;3.80;75.29;101830.56;5038102;28;20160;-72
2022/04/11 04:28:35;;;;;;;7.95;4.28;;;;;;;3.88;75.31;101828.22;5038283;28;20040;-73
2022/04/11 04:31:00;;;;;;;9.73;4.55;;;;;;;3.97;74.57;101834.38;5055988;28;20388;-73
2022/04/11 04:33:25;;;;;;;9.18;4.30;;;;;;;3.88;75.32;101832.53;5056276;28;20021;-74
2022/04/11 04:35:51;;;;;;;10.15;4.93;;;;;;;3.87;75.28;101829.16;5056454;28;20070;-74
2022/04/11 04:38:16;;;;;;;11.32;4.68;;;;;;;3.93;75.06;101827.88;5054897;28;20021;-73
2022/04/11 04:40:41;;;;;;;8.75;4.40;;;;;;;3.83;74.80;101807.31;5039946;28;20045;-74
2022/04/11 04:43:08;;;;;;;11.90;4.57;;;;;;;3.74;75.89;101816.50;5067782;28;20472;-74
2022/04/11 04:45:33;;;;;;;12.00;5.00;;;;;;;3.92;75.84;101819.41;5060930;28;20032;-72
2022/04/11 04:47:59;;;;;;;11.63;4.53;;;;;;;3.96;75.30;101819.97;5061776;28;20025;-73
2022/04/11 04:50:24;;;;;;;11.50;4.65;;;;;;;4.19;75.18;101816.44;5058248;28;20090;-74
2022/04/11 04:52:49;;;;;;;9.52;4.85;;;;;;;4.15;75.15;101815.06;5054256;28;20353;-73
2022/04/11 04:55:15;;;;;;;9.27;4.80;;;;;;;4.16;74.19;101814.13;5054109;28;20108;-74
2022/04/11 04:57:40;;;;;;;11.18;4.90;;;;;;;4.10;74.08;101806.13;5055213;28;20071;-72
2022/04/11 05:00:07;;;;;;;9.95;5.05;;;;;;;4.18;74.11;101811.47;5053205;28;20025;-73
2022/04/11 05:02:36;;;;;;;12.05;4.82;;;;;;;4.23;74.06;101810.16;5054444;28;20029;-72
2022/04/11 05:05:12;;;;;;;9.50;4.70;;;;;;;4.04;73.89;101810.78;5054413;28;20021;-74
2022/04/11 05:07:37;;;;;;;11.07;4.57;;;;;;;4.09;74.64;101814.75;5055342;28;20086;-72
2022/04/11 05:10:04;;;;;;;12.15;4.47;;;;;;;4.16;74.99;101809.00;5054351;28;20024;-73
2022/04/11 05:12:38;;;;;;;9.45;4.75;;;;;;;4.18;74.66;101819.13;5055351;28;20059;-73
2022/04/11 05:15:04;;;;;;;9.77;4.85;;;;;;;4.20;75.65;101815.53;5055558;28;20408;-73
2022/04/11 05:17:29;;;;;;;9.20;5.07;;;;;;;4.27;75.06;101810.72;5055500;28;20024;-74
2022/04/11 05:19:55;;;;;;;17.83;5.93;;;;;;;4.23;75.14;101810.16;5055610;28;20028;-73
2022/04/11 05:22:20;;;;;;;11.20;5.10;;;;;;;4.22;75.60;101813.63;5054984;28;20105;-74
2022/04/11 05:24:45;;;;;;;10.35;5.35;;;;;;;4.25;75.17;101818.53;5054045;28;20028;-73
2022/04/11 05:27:10;;;;;;;12.65;4.72;;;;;;;4.38;74.88;101810.72;5055245;28;20029;-73
2022/04/11 05:29:36;;;;;;;9.13;4.82;;;;;;;4.43;74.71;101815.44;5053873;28;20492;-73
2022/04/11 05:32:01;;;;;;;9.52;5.13;;;;;;;4.34;74.53;101814.41;5055867;28;20441;-74
2022/04/11 05:34:26;;;;;;;7.57;4.68;;;;;;;4.18;75.66;101821.69;5055619;28;20035;-74
2022/04/11 05:36:52;;;;;;;15.10;5.53;;;;;;;4.26;76.00;101816.78;5055508;28;20457;-73
2022/04/11 05:39:17;;;;;;;14.05;4.72;;;;;;;4.30;75.24;101818.16;5055118;28;20024;-74
2022/04/11 05:41:42;;;;;;;12.50;4.93;;;;;;;4.37;75.61;101808.25;5053944;28;20028;-74
2022/04/11 05:44:08;;;;;;;13.02;4.45;;;;;;;4.40;74.81;101815.69;5054797;28;20041;-74
2022/04/11 05:46:33;;;;;;;10.20;5.28;;;;;;;4.43;75.30;101820.56;5055028;28;20029;-74
2022/04/11 05:48:58;;;;;;;11.48;5.53;;;;;;;4.55;75.29;101819.63;5054774;28;20028;-74
2022/04/11 05:51:25;;;;;;;11.55;4.95;;;;;;;4.85;73.49;101816.34;5054881;28;20476;-75
2022/04/11 05:53:50;;;;;;;10.60;5.55;;;;;;;4.88;73.15;101817.84;5052681;28;20388;-76
2022/04/11 05:56:16;;;;;;;10.30;5.70;;;;;;;5.13;72.74;101819.22;5053065;28;20021;-73
2022/04/11 05:58:41;;;;;;;11.15;4.72;;;;;;;5.38;71.33;101823.13;5054655;28;20021;-74
2022/04/11 06:01:06;;;;;;;9.05;5.57;;;;;;;5.77;70.41;101824.09;5054721;28;20349;-75
2022/04/11 06:03:31;;;;;;;9.85;5.25;;;;;;;5.80;69.36;101828.97;5040333;28;20045;-73
2022/04/11 06:05:57;;;;;;;11.27;5.38;;;;;;;6.02;67.68;101817.75;5055184;28;20065;-73
2022/04/11 06:08:22;;;;;;;15.70;5.65;;;;;;;6.22;67.42;101825.50;5054618;28;20049;-75
2022/04/11 06:10:47;;;;;;;12.45;6.35;;;;;;;9.23;58.18;101814.63;5056105;28;20017;-74
2022/04/11 06:13:12;;;;;;;13.15;5.78;;;;;;;12.55;48.52;101813.84;5054270;28;20028;-74
2022/04/11 06:15:38;;;;;;;11.35;5.28;;;;;;;8.85;55.36;101822.78;5054094;28;20021;-74
2022/04/11 06:18:03;;;;;;;12.55;5.78;;;;;;;6.84;62.29;101818.34;5059034;28;20031;-73
2022/04/11 06:20:28;;;;;;;14.25;6.40;;;;;;;6.62;64.52;101817.69;5054268;28;20025;-74
2022/04/11 06:22:53;;;;;;;11.00;6.13;;;;;;;6.56;65.61;101825.94;5052063;28;20033;-74
2022/04/11 06:25:19;;;;;;;17.48;6.20;;;;;;;6.48;65.12;101823.22;5035606;28;20032;-74
2022/04/11 06:27:44;;;;;;;11.95;5.88;;;;;;;6.40;65.80;101828.22;5053758;28;20029;-74
2022/04/11 06:30:10;;;;;;;12.57;6.00;;;;;;;6.54;65.05;101832.94;5052470;28;20049;-74
2022/04/11 06:32:35;;;;;;;12.25;6.63;;;;;;;6.65;65.30;101826.88;5056578;28;20044;-74
2022/04/11 06:35:01;;;;;;;8.45;6.05;;;;;;;6.67;65.03;101833.47;5052602;28;20099;-74
2022/04/11 06:37:27;;;;;;;15.15;6.25;;;;;;;7.15;63.92;101837.75;5053816;28;20029;-75
2022/04/11 06:39:53;;;;;;;12.80;6.25;;;;;;;7.60;62.42;101831.97;5052526;28;20029;-74
2022/04/11 06:42:19;;;;;;;14.57;5.82;;;;;;;8.01;60.04;101829.88;5053192;28;20091;-73
2022/04/11 06:44:44;;;;;;;15.32;6.15;;;;;;;8.43;59.25;101828.53;5058089;28;20028;-75
2022/04/11 06:47:10;;;;;;;11.95;6.53;;;;;;;10.35;54.98;101833.47;5053891;28;20056;-75
2022/04/11 06:49:36;;;;;;;12.88;6.75;;;;;;;10.39;53.13;101832.19;5054039;28;20032;-74
2022/04/11 06:52:01;;;;;;;11.88;6.18;;;;;;;14.35;43.60;101822.16;5053486;28;20017;-72
2022/04/11 06:54:27;;;;;;;11.55;6.30;;;;;;;16.06;39.26;101819.16;5052796;28;20368;-74
2022/04/11 06:56:53;;;;;;;10.05;6.43;;;;;;;16.56;37.54;101823.00;5036529;28;20020;-75
2022/04/11 06:59:18;;;;;;;11.40;6.03;;;;;;;15.42;40.16;101820.31;5052078;28;20078;-75
2022/04/11 07:01:43;;;;;;;11.98;6.10;;;;;;;14.51;41.29;101820.28;5052458;28;20134;-75
2022/04/11 07:04:08;;;;;;;12.70;5.80;;;;;;;15.83;39.38;101825.53;5053383;28;20104;-74
2022/04/11 07:06:34;;;;;;;10.15;5.78;;;;;;;18.27;33.86;101821.84;5053475;28;20036;-74
2022/04/11 07:08:59;;;;;;;8.80;5.38;;;;;;;17.00;36.08;101829.41;5053740;28;20066;-74
2022/04/11 07:11:24;;;;;;;10.75;5.55;;;;;;;17.48;34.84;101830.88;5053217;28;20033;-74
2022/04/11 07:13:49;;;;;;;9.27;5.65;;;;;;;15.91;38.20;101816.69;5053904;28;20025;-75
2022/04/11 07:16:15;;;;;;;10.35;5.50;;;;;;;15.61;39.41;101816.97;5054459;28;20021;-75
2022/04/11 07:18:40;;;;;;;10.57;5.63;;;;;;;16.78;36.40;101810.59;5056867;28;20067;-75
2022/04/11 07:21:05;;;;;;;9.05;5.78;;;;;;;18.21;34.83;101809.59;5056719;28;20025;-75
2022/04/11 07:23:31;;;;;;;8.25;5.65;;;;;;;15.89;36.76;101808.28;5057923;28;20028;-74
2022/04/11 07:25:56;;;;;;;9.85;5.60;;;;;;;17.11;34.51;101807.09;5060115;28;20040;-74
2022/04/11 07:28:21;;;;;;;8.45;5.50;;;;;;;16.85;35.67;101800.13;5058495;28;20094;-74
2022/04/11 07:30:47;;;;;;;9.25;5.68;;;;;;;15.89;37.75;101795.25;5057440;28;20074;-75
2022/04/11 07:33:12;;;;;;;10.10;5.75;;;;;;;14.98;39.64;101775.41;5057211;28;20360;-75
2022/04/11 07:35:37;;;;;;;6.97;5.05;;;;;;;14.48;40.25;101797.28;5041542;28;20100;-74
2022/04/11 07:38:02;;;;;;;11.30;5.30;;;;;;;14.57;39.55;101791.75;5057571;28;20083;-75
2022/04/11 07:40:29;;;;;;;8.68;5.63;;;;;;;16.64;35.63;101786.25;5057737;28;20035;-75
2022/04/11 07:42:55;;;;;;;9.07;5.40;;;;;;;16.63;36.52;101783.84;5057439;28;20059;-75
2022/04/11 07:45:20;;;;;;;8.70;5.30;;;;;;;16.46;36.43;101779.06;5057568;28;20068;-74
2022/04/11 07:47:46;;;;;;;12.00;5.40;;;;;;;19.03;33.99;101775.44;5057476;28;20029;-75
2022/04/11 07:50:12;;;;;;;11.75;5.15;;;;;;;19.02;32.88;101774.66;5057944;28;20032;-76
2022/04/11 07:52:38;;;;;;;12.70;5.15;;;;;;;17.35;35.84;101769.84;5057241;28;20021;-75
2022/04/11 07:55:05;;;;;;;10.27;5.38;;;;;;;16.86;36.67;101770.38;5057080;28;20021;-78
2022/04/11 07:57:30;;;;;;;10.90;5.32;;;;;;;16.75;36.99;101771.00;5063829;28;20033;-74
2022/04/11 07:59:56;;;;;;;8.85;4.82;;;;;;;16.29;37.03;101762.22;5060502;28;20035;-74
2022/04/11 08:02:28;;;;;;;12.90;5.20;;;;;;;16.61;37.25;101760.56;5058928;28;20733;-75
2022/04/11 08:04:53;;;;;;;10.43;5.20;;;;;;;16.41;36.94;101772.84;5057093;28;20080;-75
2022/04/11 08:07:20;;;;;;;11.30;5.07;;;;;;;16.89;37.73;101762.19;5057289;28;20097;-74
2022/04/11 08:09:46;;;;;;;10.82;5.30;;;;;;;18.25;34.37;101761.88;5056238;28;20080;-75
2022/04/11 08:12:11;;;;;;;11.00;5.45;;;;;;;18.79;32.64;101762.22;5055079;28;20499;-75
2022/04/11 08:14:37;;;;;;;10.10;5.10;;;;;;;18.91;32.36;101759.66;5057202;28;20035;-76
2022/04/11 08:17:03;;;;;;;9.18;4.90;;;;;;;19.50;31.42;101755.50;5041822;28;20032;-75
2022/04/11 08:19:31;;;;;;;10.10;5.30;;;;;;;19.74;31.03;101758.25;5058508;28;20021;-74
2022/04/11 08:21:57;;;;;;;10.07;5.05;;;;;;;20.39;30.43;101760.03;5054870;28;20029;-74
2022/04/11 08:24:23;;;;;;;8.95;4.75;;;;;;;19.97;29.87;101753.06;5055611;28;20052;-74
2022/04/11 08:26:48;;;;;;;12.38;4.38;;;;;;;19.46;31.69;101748.31;5054206;28;20140;-73
2022/04/11 08:29:13;;;;;;;9.52;4.10;;;;;;;19.74;29.83;101748.56;5037704;28;20460;-74
2022/04/11 08:31:39;;;;;;;9.57;4.40;;;;;;;18.48;31.52;101747.38;5057474;28;20029;-74
2022/04/11 08:34:04;;;;;;;10.10;4.32;;;;;;;17.78;32.90;101744.91;5037983;28;20478;-73
2022/04/11 08:36:30;;;;;;;9.52;4.60;;;;;;;18.38;30.70;101744.44;5057215;28;20037;-75
2022/04/11 08:38:55;;;;;;;10.68;5.35;;;;;;;18.49;30.66;101739.31;5054243;28;20028;-74
2022/04/11 08:41:21;;;;;;;9.57;4.57;;;;;;;17.94;31.45;101741.78;5055446;28;20036;-73
2022/04/11 08:43:47;;;;;;;9.75;4.55;;;;;;;17.35;32.04;101737.69;5056804;28;20029;-74
2022/04/11 08:46:17;;;;;;;8.48;4.47;;;;;;;17.13;34.05;101745.00;5054973;28;20352;-73
2022/04/11 08:48:43;;;;;;;10.57;4.80;;;;;;;16.51;34.66;101744.53;5038297;28;20028;-74
2022/04/11 08:51:08;;;;;;;7.97;4.65;;;;;;;16.39;33.99;101738.31;5055314;28;20146;-75
2022/04/11 08:53:34;;;;;;;10.15;4.53;;;;;;;16.61;34.89;101738.91;5055587;28;20483;-76
2022/04/11 08:55:59;;;;;;;9.70;4.60;;;;;;;16.39;35.59;101731.28;5058866;28;20035;-74
2022/04/11 08:58:25;;;;;;;10.35;5.50;;;;;;;17.32;36.57;101732.88;5058029;28;20396;-74
2022/04/11 09:00:50;;;;;;;9.90;5.50;;;;;;;17.13;37.25;101729.34;5057739;28;20036;-75
2022/04/11 09:03:15;;;;;;;11.98;5.70;;;;;;;17.66;35.81;101730.88;5058541;28;20072;-74
2022/04/11 09:05:41;;;;;;;8.13;5.18;;;;;;;18.27;35.33;101732.88;5056351;28;20025;-75
2022/04/11 09:08:06;;;;;;;8.88;5.05;;;;;;;16.60;34.88;101732.88;5055146;28;20500;-75
2022/04/11 09:10:37;;;;;;;8.65;5.00;;;;;;;17.06;34.82;101725.94;5056367;28;20037;-76
2022/04/11 09:13:04;;;;;;;10.85;4.78;;;;;;;17.63;33.59;101726.06;5057104;28;20044;-75
2022/04/11 09:15:39;;;;;;;9.45;4.88;;;;;;;16.79;33.50;101733.88;5060780;28;20044;-77
2022/04/11 09:18:04;;;;;;;8.60;4.47;;;;;;;16.30;34.29;101721.28;5063544;28;20036;-75
2022/04/11 09:20:30;;;;;;;9.77;4.47;;;;;;;16.05;34.25;101721.06;5054597;28;20044;-73
2022/04/11 09:22:55;;;;;;;9.52;4.80;;;;;;;17.45;33.71;101721.56;5055954;28;20028;-74
2022/04/11 09:25:23;;;;;;;9.95;5.30;;;;;;;17.04;32.30;101723.56;5054855;28;20119;-75
2022/04/11 09:28:03;;;;;;;15.48;5.40;;;;;;;17.33;32.01;101713.59;5052728;28;20025;-75
2022/04/11 09:30:31;;;;;;;8.52;4.60;;;;;;;17.49;32.65;101712.28;5054374;28;20136;-74
2022/04/11 09:32:56;;;;;;;11.38;4.90;;;;;;;16.51;33.29;101721.03;5052733;28;20021;-74
2022/04/11 09:35:47;;;;;;;8.10;5.00;;;;;;;16.09;33.22;101711.88;5053306;28;20125;-76
2022/04/11 09:38:17;;;;;;;12.70;6.30;;;;;;;15.71;33.38;101717.66;5053574;28;20354;-75
2022/04/11 09:40:45;;;;;;;8.02;5.25;;;;;;;16.94;32.89;101706.72;5054199;28;20044;-74
2022/04/11 09:43:13;;;;;;;10.63;5.65;;;;;;;18.07;31.23;101704.28;5055039;28;20032;-75
2022/04/11 09:45:42;;;;;;;9.52;6.00;;;;;;;16.43;31.83;101718.66;5055363;28;20025;-75
2022/04/11 09:48:09;;;;;;;10.63;6.10;;;;;;;15.87;33.02;101706.81;5055658;28;20025;-74
2022/04/11 09:50:34;;;;;;;9.05;5.53;;;;;;;16.18;33.08;101723.69;5056350;28;20083;-73
2022/04/11 09:53:14;;;;;;;12.35;6.50;;;;;;;16.05;32.53;101710.63;5055519;28;20021;-75
2022/04/11 09:55:42;;;;;;;10.07;6.20;;;;;;;16.69;32.25;101710.78;5054392;28;20021;-74
2022/04/11 09:58:07;;;;;;;13.05;6.80;;;;;;;15.95;33.27;101698.81;5055310;28;20025;-75
2022/04/11 10:00:37;;;;;;;9.38;6.93;;;;;;;16.39;33.18;101697.38;5055209;28;20047;-74
2022/04/11 10:03:05;;;;;;;9.80;6.50;;;;;;;15.73;33.25;101697.38;5055388;28;20365;-73
2022/04/11 10:05:32;;;;;;;10.30;6.60;;;;;;;16.67;33.12;101694.53;5054987;28;20028;-74
2022/04/11 10:07:58;;;;;;;11.45;6.30;;;;;;;15.79;33.88;101700.00;5053848;28;20098;-74
2022/04/11 10:10:24;;;;;;;8.57;5.97;;;;;;;15.31;34.02;101684.44;5054471;28;20087;-74
2022/04/11 10:12:52;;;;;;;14.63;6.05;;;;;;;15.84;34.64;101686.38;5054738;28;20073;-74
2022/04/11 10:15:17;;;;;;;9.95;5.63;;;;;;;17.37;32.97;101678.19;5054047;28;20056;-74
2022/04/11 10:17:43;;;;;;;11.25;6.65;;;;;;;16.23;32.64;101692.59;5054998;28;20048;-75
2022/04/11 10:20:08;;;;;;;10.68;6.57;;;;;;;16.86;33.52;101690.28;5054176;28;20033;-74
2022/04/11 10:22:41;;;;;;;11.93;5.85;;;;;;;16.04;33.32;101688.19;5052914;28;20029;-75
2022/04/11 10:25:07;;;;;;;11.07;6.32;;;;;;;16.23;33.06;101690.78;5054035;28;20035;-74
2022/04/11 10:27:34;;;;;;;17.60;7.68;;;;;;;16.60;32.63;101682.47;5053842;28;20048;-74
2022/04/11 10:30:02;;;;;;;12.52;7.20;;;;;;;15.45;33.67;101687.06;5053748;28;20029;-74
2022/04/11 10:32:29;;;;;;;11.95;6.93;;;;;;;17.32;31.63;101678.84;5052437;28;20344;-73
2022/04/11 10:35:03;;;;;;;10.25;6.75;;;;;;;15.83;32.94;101686.59;5036104;28;20025;-73
2022/04/11 10:37:48;;;;;;;11.20;7.30;;;;;;;16.28;32.49;101682.34;5054285;28;20025;-74
2022/04/11 10:40:16;;;;;;;11.95;7.10;;;;;;;17.07;33.79;101672.72;5053433;28;20028;-74
2022/04/11 10:43:00;;;;;;;13.68;7.43;;;;;;;16.77;33.47;101685.47;5052081;28;20084;-74
2022/04/11 10:45:35;;;;;;;12.60;7.45;;;;;;;16.80;32.18;101682.47;5052153;28;20061;-74
2022/04/11 10:48:00;;;;;;;11.60;7.40;;;;;;;16.55;33.14;101674.50;5053494;28;20048;-74
2022/04/11 10:50:42;;;;;;;12.55;7.68;;;;;;;15.95;33.11;101672.75;5035513;28;20056;-74
2022/04/11 10:53:24;;;;;;;12.43;7.72;;;;;;;16.58;33.21;101672.28;5053693;28;20067;-74
2022/04/11 10:56:02;;;;;;;10.25;7.40;;;;;;;16.67;33.44;101662.41;5052135;28;20017;-74
2022/04/11 10:58:46;;;;;;;12.48;7.47;;;;;;;17.58;32.07;101646.50;5053110;28;20021;-74
2022/04/11 11:01:12;;;;;;;13.27;7.78;;;;;;;16.94;32.25;101644.06;5053373;28;20127;-74
2022/04/11 11:03:40;;;;;;;10.88;6.93;;;;;;;16.76;32.89;101636.88;5053520;28;20049;-74
2022/04/11 11:06:19;;;;;;;11.32;7.03;;;;;;;17.02;31.68;101649.03;5035257;28;20020;-74
2022/04/11 11:08:45;;;;;;;9.20;6.45;;;;;;;15.93;32.23;101640.84;5053287;28;20036;-74
2022/04/11 11:11:23;;;;;;;10.63;7.05;;;;;;;17.01;32.12;101634.41;5054040;28;20029;-74
2022/04/11 11:13:49;;;;;;;13.02;6.72;;;;;;;16.57;31.25;101641.16;5053383;28;20107;-75
2022/04/11 11:16:14;;;;;;;11.55;6.53;;;;;;;16.48;30.75;101632.75;5053348;28;20017;-74
2022/04/11 11:18:48;;;;;;;10.82;6.10;;;;;;;15.46;32.02;101634.78;5053284;28;20033;-74
2022/04/11 11:21:15;;;;;;;11.85;6.63;;;;;;;16.06;31.10;101621.00;5052199;28;20166;-74